createdAt,value
2019-04-24T00:00:05.296Z,55.13
2019-04-24T00:02:36.731Z,55.70
2019-04-24T00:05:22.775Z,55.63
2019-04-24T00:07:21.036Z,55.97
2019-04-24T00:10:12.931Z,54.70
2019-04-24T00:13:03.069Z,55.27
2019-04-24T00:18:37.466Z,56.80
2019-04-24T00:20:55.104Z,55.90
2019-04-24T00:25:51.576Z,54.90
2019-04-24T00:28:26.766Z,55.50
2019-04-24T00:31:06.018Z,55.23
2019-04-24T00:33:32.982Z,56.03
2019-04-24T00:36:26.397Z,54.73
2019-04-24T00:43:55.511Z,55.47
2019-04-24T00:46:33.323Z,55.83
2019-04-24T00:48:48.492Z,54.90
2019-04-24T00:56:30.002Z,55.00
2019-04-24T00:59:13.296Z,55.03
2019-04-24T01:02:13.253Z,55.50
2019-04-24T01:05:02.232Z,55.30
2019-04-24T01:07:30.203Z,54.90
2019-04-24T01:12:43.373Z,55.43
2019-04-24T01:15:19.182Z,54.33
2019-04-24T01:30:49.073Z,54.83
2019-04-24T01:36:09.332Z,54.57
2019-04-24T01:38:37.569Z,55.50
2019-04-24T01:41:15.555Z,56.23
2019-04-24T01:43:41.776Z,54.53
2019-04-24T01:48:45.896Z,56.10
2019-04-24T01:51:23.192Z,55.90
2019-04-24T01:53:47.589Z,56.23
2019-04-24T01:56:29.253Z,55.37
2019-04-24T01:58:58.108Z,55.33
2019-04-24T02:03:57.057Z,55.67
2019-04-24T02:06:20.633Z,55.90
2019-04-24T02:09:13.999Z,55.77
2019-04-24T02:12:08.204Z,56.70
2019-04-24T02:14:31.546Z,55.20
2019-04-24T02:19:22.885Z,55.10
2019-04-24T02:21:56.079Z,54.83
2019-04-24T02:24:36.823Z,55.20
2019-04-24T02:26:59.543Z,56.47
2019-04-24T02:32:35.113Z,55.13
2019-04-24T02:35:02.877Z,56.00
2019-04-24T02:42:55.574Z,55.40
2019-04-24T02:50:13.398Z,54.77
2019-04-24T02:52:55.661Z,55.60
2019-04-24T02:55:13.651Z,55.73
2019-04-24T02:57:47.393Z,56.00
2019-04-24T03:03:14.910Z,55.10
2019-04-24T03:05:53.563Z,54.77
2019-04-24T03:08:35.387Z,55.30
2019-04-24T03:14:04.136Z,54.37
2019-04-24T03:19:17.977Z,55.47
2019-04-24T03:21:42.403Z,55.97
2019-04-24T03:24:18.936Z,55.10
2019-04-24T03:29:26.622Z,55.13
2019-04-24T03:37:13.019Z,55.73
2019-04-24T03:42:35.251Z,56.00
2019-04-24T03:46:54.138Z,55.77
2019-04-24T04:05:33.137Z,55.00
2019-04-24T04:10:52.176Z,54.63
2019-04-24T04:15:55.059Z,54.80
2019-04-24T04:21:33.166Z,55.40
2019-04-24T04:32:01.435Z,54.60
2019-04-24T04:40:09.395Z,54.47
2019-04-24T04:42:51.986Z,54.80
2019-04-24T04:45:11.442Z,54.63
2019-04-24T04:47:45.108Z,54.60
2019-04-24T05:01:38.835Z,54.97
2019-04-24T05:06:54.139Z,54.50
2019-04-24T05:11:48.774Z,55.37
2019-04-24T05:32:12.318Z,53.97
2019-04-24T05:34:52.693Z,54.60
2019-04-24T05:37:53.122Z,54.20
2019-04-24T05:45:21.275Z,54.27
2019-04-24T05:47:58.979Z,54.30
2019-04-24T05:53:20.013Z,53.83
2019-04-24T05:58:22.285Z,53.83
2019-04-24T06:09:34.788Z,53.83
2019-04-24T06:15:09.045Z,54.20
2019-04-24T06:18:08.973Z,53.73
2019-04-24T06:23:09.227Z,55.63
2019-04-24T06:26:12.807Z,54.00
2019-04-24T06:28:29.585Z,55.57
2019-04-24T06:33:29.631Z,54.40
2019-04-24T06:38:37.432Z,55.13
2019-04-24T06:41:28.516Z,55.00
2019-04-24T06:46:22.187Z,55.33
2019-04-24T06:51:29.445Z,54.87
2019-04-24T06:54:11.148Z,55.20
2019-04-24T07:01:55.807Z,54.23
2019-04-24T07:07:27.604Z,54.87
2019-04-24T07:10:09.012Z,55.23
2019-04-24T07:15:56.818Z,55.60
2019-04-24T07:18:26.323Z,54.70
2019-04-24T07:23:24.584Z,54.83
2019-04-24T07:31:12.502Z,55.40
2019-04-24T07:34:27.230Z,56.33
2019-04-24T07:36:47.671Z,56.17
2019-04-24T07:39:34.819Z,55.23
2019-04-24T07:44:24.839Z,55.97
2019-04-24T07:47:14.786Z,58.37
2019-04-24T07:55:43.050Z,60.20
2019-04-24T07:57:32.105Z,61.73
2019-04-24T08:03:19.190Z,60.40
2019-04-24T08:05:35.347Z,62.73
2019-04-24T08:08:10.537Z,61.03
2019-04-24T08:10:56.827Z,60.30
2019-04-24T08:16:01.144Z,59.07
2019-04-24T08:18:28.044Z,59.27
2019-04-24T08:24:51.380Z,58.90
2019-04-24T08:34:44.759Z,59.53
2019-04-24T08:37:17.628Z,58.30
2019-04-24T08:45:39.920Z,58.13
2019-04-24T08:48:18.590Z,57.27
2019-04-24T08:53:34.490Z,56.63
2019-04-24T08:55:48.753Z,56.57
2019-04-24T09:01:06.468Z,56.83
2019-04-24T09:06:05.615Z,55.70
2019-04-24T09:08:51.878Z,55.83
2019-04-24T09:11:41.645Z,57.20
2019-04-24T09:16:58.455Z,56.70
2019-04-24T09:30:19.417Z,57.63
2019-04-24T09:37:58.354Z,57.07
2019-04-24T09:45:53.480Z,56.97
2019-04-24T09:51:06.429Z,56.40
2019-04-24T09:53:45.526Z,57.07
2019-04-24T09:56:30.897Z,56.13
2019-04-24T09:59:06.640Z,56.67
2019-04-24T10:04:54.568Z,56.17
2019-04-24T10:07:21.394Z,57.27
2019-04-24T10:10:08.618Z,57.23
2019-04-24T10:15:08.641Z,58.70
2019-04-24T10:17:48.894Z,57.60
2019-04-24T10:20:22.392Z,57.50
2019-04-24T10:23:00.167Z,57.77
2019-04-24T10:25:33.323Z,57.77
2019-04-24T10:28:52.080Z,57.20
2019-04-24T10:31:25.270Z,56.90
2019-04-24T10:34:13.024Z,56.77
2019-04-24T10:36:59.352Z,57.20
2019-04-24T10:50:05.387Z,56.53
2019-04-24T10:53:07.784Z,57.77
2019-04-24T10:55:46.440Z,57.90
2019-04-24T11:01:12.473Z,57.30
2019-04-24T11:06:13.301Z,57.77
2019-04-24T11:11:57.856Z,57.33
2019-04-24T11:14:25.039Z,57.57
2019-04-24T11:20:26.055Z,57.83
2019-04-24T11:23:16.646Z,56.40
2019-04-24T11:26:08.530Z,56.90
2019-04-24T11:28:57.521Z,56.60
2019-04-24T11:32:03.661Z,56.17
2019-04-24T11:37:35.495Z,57.33
2019-04-24T11:42:45.848Z,57.73
2019-04-24T11:48:30.847Z,55.97
2019-04-24T11:51:20.974Z,56.97
2019-04-24T11:53:19.509Z,56.93
2019-04-24T11:56:01.886Z,56.83
2019-04-24T12:01:37.616Z,57.03
2019-04-24T12:04:16.595Z,57.27
2019-04-24T12:06:46.677Z,57.20
2019-04-24T12:14:41.441Z,57.17
2019-04-24T12:17:31.152Z,56.20
2019-04-24T12:22:45.987Z,56.10
2019-04-24T12:25:14.240Z,57.27
2019-04-24T12:30:30.587Z,56.87
2019-04-24T12:33:03.028Z,57.20
2019-04-24T12:35:44.455Z,57.57
2019-04-24T12:38:18.461Z,57.00
2019-04-24T12:41:03.570Z,57.30
2019-04-24T12:43:49.543Z,57.00
2019-04-24T12:46:15.698Z,57.17
2019-04-24T12:51:15.324Z,57.10
2019-04-24T12:56:53.161Z,57.80
2019-04-24T13:02:03.512Z,57.83
2019-04-24T13:09:59.261Z,56.50
2019-04-24T13:12:51.291Z,57.17
2019-04-24T13:18:00.217Z,56.90
2019-04-24T13:19:52.466Z,57.60
2019-04-24T13:22:34.047Z,58.03
2019-04-24T13:25:30.056Z,57.80
2019-04-24T13:28:30.452Z,57.20
2019-04-24T13:33:46.328Z,56.67
2019-04-24T13:36:37.432Z,57.67
2019-04-24T13:41:14.302Z,57.53
2019-04-24T13:44:05.969Z,57.63
2019-04-24T13:46:20.421Z,57.13
2019-04-24T13:49:06.603Z,57.50
2019-04-24T13:51:24.041Z,57.87
2019-04-24T13:54:09.739Z,57.67
2019-04-24T13:56:30.202Z,56.60
2019-04-24T13:59:06.217Z,58.13
2019-04-24T14:06:53.044Z,57.60
2019-04-24T14:12:35.870Z,57.20
2019-04-24T14:14:12.363Z,58.17
2019-04-24T14:19:41.949Z,57.60
2019-04-24T14:25:13.094Z,57.40
2019-04-24T14:27:10.084Z,57.27
2019-04-24T14:29:42.893Z,57.60
2019-04-24T14:32:11.438Z,57.50
2019-04-24T14:34:52.756Z,56.97
2019-04-24T14:37:15.596Z,56.83
2019-04-24T14:39:49.827Z,57.27
2019-04-24T14:42:24.607Z,57.20
2019-04-24T14:45:15.108Z,56.67
2019-04-24T14:47:37.964Z,57.10
2019-04-24T14:50:16.537Z,57.13
2019-04-24T14:55:16.453Z,57.07
2019-04-24T15:00:18.368Z,57.03
2019-04-24T15:02:49.312Z,57.87
2019-04-24T15:05:19.935Z,57.80
2019-04-24T15:07:57.601Z,58.07
2019-04-24T15:10:20.957Z,57.20
2019-04-24T15:15:31.637Z,56.47
2019-04-24T15:18:12.663Z,58.77
2019-04-24T15:20:48.405Z,58.47
2019-04-24T15:25:58.593Z,58.50
2019-04-24T15:30:50.968Z,57.63
2019-04-24T15:33:30.229Z,57.73
2019-04-24T15:36:03.089Z,57.60
2019-04-24T15:38:24.244Z,58.47
2019-04-24T15:41:08.975Z,58.57
2019-04-24T15:48:45.230Z,57.30
2019-04-24T15:53:07.139Z,57.40
2019-04-24T15:55:39.726Z,57.93
2019-04-24T15:58:20.089Z,58.63
2019-04-24T16:06:09.343Z,58.20
2019-04-24T16:08:39.083Z,57.63
2019-04-24T16:11:08.939Z,58.70
2019-04-24T16:13:43.858Z,57.93
2019-04-24T16:16:39.647Z,57.40
2019-04-24T16:19:35.046Z,57.90
2019-04-24T16:24:40.327Z,59.43
2019-04-24T16:29:17.754Z,57.80
2019-04-24T16:32:20.748Z,59.17
2019-04-24T16:34:16.660Z,58.97
2019-04-24T16:37:03.498Z,58.77
2019-04-24T16:39:17.653Z,59.30
2019-04-24T16:44:50.272Z,58.50
2019-04-24T16:47:00.726Z,58.43
2019-04-24T16:49:52.213Z,58.83
2019-04-24T16:52:08.443Z,59.83
2019-04-24T16:54:29.741Z,59.47
2019-04-24T16:59:28.771Z,59.17
2019-04-24T17:02:12.173Z,59.03
2019-04-24T17:04:57.263Z,58.67
2019-04-24T17:09:59.257Z,59.63
2019-04-24T17:12:19.966Z,58.60
2019-04-24T17:14:56.439Z,59.37
2019-04-24T17:20:15.260Z,58.57
2019-04-24T17:25:16.323Z,58.07
2019-04-24T17:30:41.058Z,58.20
2019-04-24T17:33:05.278Z,58.73
2019-04-24T17:37:32.887Z,57.33
2019-04-24T17:40:21.710Z,57.10
2019-04-24T17:43:18.778Z,57.33
2019-04-24T17:48:12.533Z,57.27
2019-04-24T17:50:56.714Z,57.63
2019-04-24T17:53:29.990Z,57.50
2019-04-24T17:55:57.614Z,56.50
2019-04-24T17:58:04.556Z,56.63
2019-04-24T18:00:55.585Z,57.43
2019-04-24T18:03:25.664Z,57.47
2019-04-24T18:05:55.930Z,57.37
2019-04-24T18:08:25.781Z,57.63
2019-04-24T18:10:55.461Z,57.47
2019-04-24T18:13:25.196Z,56.73
2019-04-24T18:15:55.485Z,57.57
2019-04-24T18:18:25.407Z,57.00
2019-04-24T18:20:55.345Z,56.40
2019-04-24T18:23:25.182Z,57.10
2019-04-24T18:26:04.282Z,57.67
2019-04-24T18:28:35.117Z,57.13
2019-04-24T18:31:05.986Z,57.07
2019-04-24T18:33:35.718Z,56.90
2019-04-24T18:36:05.679Z,56.33
2019-04-24T18:38:36.424Z,57.73
2019-04-24T18:41:06.220Z,57.03
2019-04-24T18:43:35.905Z,57.57
2019-04-24T18:46:06.625Z,57.87
2019-04-24T18:48:38.797Z,56.60
2019-04-24T18:51:07.962Z,56.73
2019-04-24T18:53:37.783Z,56.97
2019-04-24T18:56:07.546Z,55.63
2019-04-24T18:58:37.459Z,54.90
2019-04-24T19:01:08.166Z,54.63
2019-04-24T19:03:38.362Z,54.97
2019-04-24T19:06:22.354Z,53.70
2019-04-24T19:08:41.309Z,53.77
2019-04-24T19:11:13.097Z,53.50
2019-04-24T19:13:42.943Z,53.63
2019-04-24T19:16:13.439Z,52.80
2019-04-24T19:18:43.985Z,52.53
2019-04-24T19:21:13.706Z,52.17
2019-04-24T19:23:43.531Z,52.17
2019-04-24T19:26:13.590Z,51.60
2019-04-24T19:28:44.348Z,51.30
2019-04-24T19:31:14.572Z,51.37
2019-04-24T19:33:44.387Z,51.23
2019-04-24T19:36:14.463Z,50.50
2019-04-24T19:38:44.447Z,50.50
2019-04-24T19:41:15.089Z,53.40
2019-04-24T19:43:45.099Z,51.20
2019-04-24T19:46:18.591Z,50.57
2019-04-24T19:48:47.120Z,51.00
2019-04-24T19:51:16.911Z,50.50
2019-04-24T19:53:46.661Z,50.00
2019-04-24T19:56:16.711Z,50.07
2019-04-24T19:58:46.407Z,49.60
2019-04-24T20:01:17.404Z,49.77
2019-04-24T20:03:47.059Z,49.60
2019-04-24T20:06:17.423Z,50.33
2019-04-24T20:08:47.432Z,50.53
2019-04-24T20:11:35.554Z,50.03
2019-04-24T20:14:06.371Z,50.10
2019-04-24T20:16:36.200Z,50.00
2019-04-24T20:19:06.022Z,49.90
2019-04-24T20:21:35.695Z,50.57
2019-04-24T20:24:05.439Z,49.83
2019-04-24T20:26:35.188Z,50.10
2019-04-24T20:29:05.002Z,49.00
2019-04-24T20:31:35.837Z,49.73
2019-04-24T20:34:05.499Z,48.40
2019-04-24T20:36:35.174Z,49.13
2019-04-24T20:39:07.232Z,48.73
2019-04-24T20:41:38.544Z,48.47
2019-04-24T20:44:08.259Z,48.20
2019-04-24T20:46:39.140Z,48.50
2019-04-24T20:49:08.811Z,48.30
2019-04-24T20:51:38.491Z,48.90
2019-04-24T20:54:08.154Z,48.70
2019-04-24T20:56:37.830Z,49.20
2019-04-24T20:59:07.515Z,48.30
2019-04-24T21:01:37.275Z,48.30
2019-04-24T21:04:07.026Z,48.40
2019-04-24T21:06:42.051Z,48.40
2019-04-24T21:09:32.548Z,47.87
2019-04-24T21:12:03.774Z,47.97
2019-04-24T21:14:33.514Z,47.97
2019-04-24T21:17:03.217Z,47.93
2019-04-24T21:19:33.971Z,48.60
2019-04-24T21:22:03.959Z,48.20
2019-04-24T21:24:33.630Z,48.37
2019-04-24T21:27:03.378Z,48.20
2019-04-24T21:29:33.497Z,48.23
2019-04-24T21:32:05.590Z,48.20
2019-04-24T21:34:34.716Z,48.47
2019-04-24T21:37:04.463Z,47.47
2019-04-24T21:39:34.185Z,47.97
2019-04-24T21:42:03.972Z,47.90
2019-04-24T21:44:36.003Z,47.70
2019-04-24T21:47:06.006Z,47.77
2019-04-24T21:49:35.683Z,47.77
2019-04-24T21:52:05.431Z,47.63
2019-04-24T21:54:35.173Z,48.07
2019-04-24T21:57:05.122Z,47.80
2019-04-24T21:59:34.815Z,48.17
2019-04-24T22:02:25.171Z,48.23
2019-04-24T22:05:01.568Z,48.37
2019-04-24T22:07:36.735Z,47.63
2019-04-24T22:10:06.527Z,47.70
2019-04-24T22:12:38.106Z,47.77
2019-04-24T22:15:08.423Z,47.93
2019-04-24T22:17:39.270Z,48.20
2019-04-24T22:20:19.124Z,47.53
2019-04-24T22:23:11.575Z,47.80
2019-04-24T22:25:46.860Z,47.30
2019-04-24T22:28:17.083Z,47.40
2019-04-24T22:31:04.605Z,46.93
2019-04-24T22:33:38.404Z,47.07
2019-04-24T22:36:08.189Z,46.87
2019-04-24T22:38:42.187Z,47.23
2019-04-24T22:41:12.321Z,47.10
2019-04-24T22:43:42.188Z,47.20
2019-04-24T22:46:12.271Z,47.03
2019-04-24T22:48:43.554Z,47.50
2019-04-24T22:51:13.239Z,47.13
2019-04-24T22:53:42.910Z,47.20
2019-04-24T22:56:12.595Z,47.23
2019-04-24T22:58:43.019Z,47.20
2019-04-24T23:01:13.056Z,47.33
2019-04-24T23:03:43.926Z,47.83
2019-04-24T23:06:14.155Z,46.90
2019-04-24T23:08:44.791Z,46.80
2019-04-24T23:11:15.403Z,46.90
2019-04-24T23:13:46.306Z,47.50
2019-04-24T23:16:16.125Z,47.13
2019-04-24T23:18:45.939Z,47.40
2019-04-24T23:21:30.510Z,46.93
2019-04-24T23:24:06.977Z,47.47
2019-04-24T23:26:55.723Z,47.30
2019-04-24T23:29:29.803Z,47.30
2019-04-24T23:32:18.563Z,47.70
2019-04-24T23:34:51.256Z,47.63
2019-04-24T23:37:21.050Z,47.37
2019-04-24T23:39:50.719Z,47.23
2019-04-24T23:42:20.466Z,47.37
2019-04-24T23:44:50.162Z,47.00
2019-04-24T23:47:19.830Z,47.13
2019-04-24T23:49:49.498Z,46.83
2019-04-24T23:52:19.251Z,46.90
2019-04-24T23:55:02.497Z,46.93
2019-04-24T23:57:21.601Z,46.80
2019-04-24T23:59:51.905Z,46.80
